Time;durP1;ratioP1;P1;durP2;ratioP2;P2;SDS_P1;SDS_P2;PMS_P1;PMS_P2;Temp;Humidity;BMP_temperature;BMP_pressure;BME280_temperature;BME280_humidity;BME280_pressure;Samples;Min_cycle;Max_cycle;Signal;HPM_P1;HPM_P2
2022/09/23 00:00:45;;;;;;;;;;;;;;;;;;5085720;28;19967;-80
2022/09/23 00:03:12;;;;;;;;;;;;;;;;;;5081149;28;19982;-80
2022/09/23 00:05:39;;;;;;;;;;;;;;;;;;5080548;28;19981;-81
2022/09/23 00:08:06;;;;;;;;;;;;;;;;;;5084746;28;19930;-77
2022/09/23 00:10:33;;;;;;;;;;;;;;;;;;5084385;28;19928;-81
2022/09/23 00:13:01;;;;;;;;;;;;;;;;;;5078666;28;19935;-81
2022/09/23 00:15:29;;;;;;;;;;;;;;;;;;5074229;28;19929;-80
2022/09/23 00:17:56;;;;;;;;;;;;;;;;;;5090134;28;19928;-80
2022/09/23 00:20:24;;;;;;;;;;;;;;;;;;5087682;28;20481;-81
2022/09/23 00:22:52;;;;;;;;;;;;;;;;;;5079457;28;19971;-80
2022/09/23 00:25:19;;;;;;;;;;;;;;;;;;5083261;28;20396;-78
2022/09/23 00:27:46;;;;;;;;;;;;;;;;;;5079382;28;19935;-80
2022/09/23 00:30:13;;;;;;;;;;;;;;;;;;5087978;28;19932;-79
2022/09/23 00:32:40;;;;;;;;;;;;;;;;;;5081158;28;19924;-81
2022/09/23 00:35:07;;;;;;;;;;;;;;;;;;5082436;28;19927;-80
2022/09/23 00:37:34;;;;;;;;;;;;;;;;;;5079956;28;19939;-79
2022/09/23 00:40:01;;;;;;;;;;;;;;;;;;5074891;28;19932;-80
2022/09/23 00:42:28;;;;;;;;;;;;;;;;;;5079087;28;20613;-78
2022/09/23 00:44:55;;;;;;;;;;;;;;;;;;5088586;28;20371;-79
2022/09/23 00:47:22;;;;;;;;;;;;;;;;;;5088964;28;19978;-81
2022/09/23 00:49:50;;;;;;;;;;;;;;;;;;5090872;28;19928;-79
2022/09/23 00:52:17;;;;;;;;;;;;;;;;;;5088786;28;19974;-80
2022/09/23 00:54:45;;;;;;;;;;;;;;;;;;5086566;28;20408;-80
2022/09/23 00:57:12;;;;;;;;;;;;;;;;;;5088933;28;19924;-81
2022/09/23 00:59:39;;;;;;;;;;;;;;;;;;5095213;28;19951;-81
2022/09/23 01:02:06;;;;;;;;;;;;;;;;;;5092245;28;20021;-80
2022/09/23 01:04:33;;;;;;;;;;;;;;;;;;5087105;28;19955;-81
2022/09/23 01:07:00;;;;;;;;;;;;;;;;;;5083729;28;19928;-80
2022/09/23 01:09:27;;;;;;;;;;;;;;;;;;5094055;28;19927;-77
2022/09/23 01:11:54;;;;;;;;;;;;;;;;;;5086833;28;19932;-81
2022/09/23 01:14:21;;;;;;;;;;;;;;;;;;5084445;28;20303;-79
2022/09/23 01:16:48;;;;;;;;;;;;;;;;;;5089434;28;19925;-81
2022/09/23 01:19:15;;;;;;;;;;;;;;;;;;5087149;28;19932;-81
2022/09/23 01:21:42;;;;;;;;;;;;;;;;;;5086450;28;19934;-80
2022/09/23 01:24:09;;;;;;;;;;;;;;;;;;5078675;28;19939;-80
2022/09/23 01:26:36;;;;;;;;;;;;;;;;;;5091099;28;19962;-80
2022/09/23 01:29:03;;;;;;;;;;;;;;;;;;5085071;28;19998;-81
2022/09/23 01:31:30;;;;;;;;;;;;;;;;;;5078654;28;20023;-79
2022/09/23 01:33:57;;;;;;;;;;;;;;;;;;5086512;28;19932;-81
2022/09/23 01:36:24;;;;;;;;;;;;;;;;;;5081327;28;19928;-80
2022/09/23 01:38:51;;;;;;;;;;;;;;;;;;5083857;28;20359;-80
2022/09/23 01:41:18;;;;;;;;;;;;;;;;;;5084869;28;19992;-80
2022/09/23 01:43:45;;;;;;;;;;;;;;;;;;5081609;28;19931;-81
2022/09/23 01:46:13;;;;;;;;;;;;;;;;;;5084153;28;19935;-78
2022/09/23 01:48:40;;;;;;;;;;;;;;;;;;5086844;28;19928;-81
2022/09/23 01:51:07;;;;;;;;;;;;;;;;;;5083206;28;20287;-79
2022/09/23 01:53:37;;;;;;;;;;;;;;;;;;5080681;28;19932;-81
2022/09/23 01:56:04;;;;;;;;;;;;;;;;;;5090339;28;20424;-79
2022/09/23 01:58:31;;;;;;;;;;;;;;;;;;5086156;28;20378;-80
2022/09/23 02:00:58;;;;;;;;;;;;;;;;;;5092443;28;19935;-77
2022/09/23 02:03:26;;;;;;;;;;;;;;;;;;5081649;28;19930;-81
2022/09/23 02:05:53;;;;;;;;;;;;;;;;;;5082514;28;20306;-81
2022/09/23 02:08:20;;;;;;;;;;;;;;;;;;5082651;28;19928;-80
2022/09/23 02:10:47;;;;;;;;;;;;;;;;;;5095841;28;19928;-78
2022/09/23 02:13:14;;;;;;;;;;;;;;;;;;5085717;28;19932;-79
2022/09/23 02:15:41;;;;;;;;;;;;;;;;;;5093106;28;19928;-79
2022/09/23 02:18:08;;;;;;;;;;;;;;;;;;5080236;28;19967;-76
2022/09/23 02:20:35;;;;;;;;;;;;;;;;;;5081977;28;19924;-80
2022/09/23 02:23:02;;;;;;;;;;;;;;;;;;5079963;28;19924;-77
2022/09/23 02:25:32;;;;;;;;;;;;;;;;;;5093676;28;19955;-79
2022/09/23 02:27:59;;;;;;;;;;;;;;;;;;5083912;28;19927;-79
2022/09/23 02:30:26;;;;;;;;;;;;;;;;;;5078575;28;19939;-81
2022/09/23 02:32:54;;;;;;;;;;;;;;;;;;5080426;28;19931;-80
2022/09/23 02:35:22;;;;;;;;;;;;;;;;;;5080930;28;20066;-79
2022/09/23 02:37:49;;;;;;;;;;;;;;;;;;5081939;28;19928;-81
2022/09/23 02:40:16;;;;;;;;;;;;;;;;;;5079624;28;20659;-77
2022/09/23 02:42:43;;;;;;;;;;;;;;;;;;5083382;28;19924;-81
2022/09/23 02:45:10;;;;;;;;;;;;;;;;;;5089508;28;19928;-80
2022/09/23 02:47:38;;;;;;;;;;;;;;;;;;5091337;28;20417;-80
2022/09/23 02:50:05;;;;;;;;;;;;;;;;;;5095679;28;19928;-81
2022/09/23 02:52:32;;;;;;;;;;;;;;;;;;5088317;28;20472;-81
2022/09/23 02:54:59;;;;;;;;;;;;;;;;;;5082954;28;19935;-80
2022/09/23 02:57:27;;;;;;;;;;;;;;;;;;5081972;28;19928;-79
2022/09/23 02:59:54;;;;;;;;;;;;;;;;;;5082289;28;19931;-80
2022/09/23 03:02:21;;;;;;;;;;;;;;;;;;5075486;28;21022;-81
2022/09/23 03:04:49;;;;;;;;;;;;;;;;;;5082781;28;19936;-82
2022/09/23 03:07:16;;;;;;;;;;;;;;;;;;5079216;28;20409;-80
2022/09/23 03:09:43;;;;;;;;;;;;;;;;;;5084775;28;19935;-81
2022/09/23 03:12:10;;;;;;;;;;;;;;;;;;5085051;28;20548;-78
2022/09/23 03:14:37;;;;;;;;;;;;;;;;;;5078671;28;19928;-81
2022/09/23 03:17:04;;;;;;;;;;;;;;;;;;5075987;28;19931;-80
2022/09/23 03:19:32;;;;;;;;;;;;;;;;;;5081519;28;19981;-80
2022/09/23 03:22:00;;;;;;;;;;;;;;;;;;5080097;28;19960;-75
2022/09/23 03:24:30;;;;;;;;;;;;;;;;;;5078347;28;19924;-80
2022/09/23 03:26:59;;;;;;;;;;;;;;;;;;5083525;28;19936;-80
2022/09/23 03:29:26;;;;;;;;;;;;;;;;;;5081351;28;20243;-77
2022/09/23 03:31:53;;;;;;;;;;;;;;;;;;5074374;28;19924;-80
2022/09/23 03:34:20;;;;;;;;;;;;;;;;;;5077362;28;20463;-80
2022/09/23 03:36:50;;;;;;;;;;;;;;;;;;5077891;28;19936;-80
2022/09/23 03:39:17;;;;;;;;;;;;;;;;;;5086056;28;19924;-80
2022/09/23 03:41:44;;;;;;;;;;;;;;;;;;5080381;28;20502;-81
2022/09/23 03:44:11;;;;;;;;;;;;;;;;;;5088013;28;19977;-77
2022/09/23 03:46:39;;;;;;;;;;;;;;;;;;5085910;28;19928;-81
2022/09/23 03:49:06;;;;;;;;;;;;;;;;;;5083465;28;19928;-81
2022/09/23 03:51:33;;;;;;;;;;;;;;;;;;5077037;28;19924;-81
2022/09/23 03:54:00;;;;;;;;;;;;;;;;;;5078412;28;19928;-80
2022/09/23 03:56:27;;;;;;;;;;;;;;;;;;5082042;28;19997;-81
2022/09/23 03:58:54;;;;;;;;;;;;;;;;;;5084305;28;19925;-81
2022/09/23 04:01:22;;;;;;;;;;;;;;;;;;5083735;28;19924;-81
2022/09/23 04:03:49;;;;;;;;;;;;;;;;;;5079271;28;19932;-80
2022/09/23 04:06:16;;;;;;;;;;;;;;;;;;5075592;28;19928;-81
2022/09/23 04:08:43;;;;;;;;;;;;;;;;;;5075581;28;20311;-79
2022/09/23 04:11:10;;;;;;;;;;;;;;;;;;5079615;28;19932;-81
2022/09/23 04:13:37;;;;;;;;;;;;;;;;;;5078673;28;19935;-79
2022/09/23 04:16:04;;;;;;;;;;;;;;;;;;5084386;28;20279;-81
2022/09/23 04:18:31;;;;;;;;;;;;;;;;;;5084950;28;19935;-81
2022/09/23 04:20:58;;;;;;;;;;;;;;;;;;5089092;28;19924;-81
2022/09/23 04:23:25;;;;;;;;;;;;;;;;;;5086912;28;20400;-79
2022/09/23 04:25:53;;;;;;;;;;;;;;;;;;5095557;28;19932;-80
2022/09/23 04:28:20;;;;;;;;;;;;;;;;;;5095996;28;19993;-81
2022/09/23 04:30:47;;;;;;;;;;;;;;;;;;5094592;28;20025;-78
2022/09/23 04:33:14;;;;;;;;;;;;;;;;;;5089629;28;19928;-81
2022/09/23 04:35:42;;;;;;;;;;;;;;;;;;5088137;28;19924;-82
2022/09/23 04:38:09;;;;;;;;;;;;;;;;;;5092648;28;19978;-79
2022/09/23 04:40:36;;;;;;;;;;;;;;;;;;5091719;28;19980;-80
2022/09/23 04:43:03;;;;;;;;;;;;;;;;;;5088297;28;19932;-77
2022/09/23 04:45:30;;;;;;;;;;;;;;;;;;5089685;28;19928;-80
2022/09/23 04:47:58;;;;;;;;;;;;;;;;;;5091352;28;19931;-80
2022/09/23 04:50:25;;;;;;;;;;;;;;;;;;5090961;28;19977;-81
2022/09/23 04:52:52;;;;;;;;;;;;;;;;;;5105483;28;19995;-79
2022/09/23 04:55:19;;;;;;;;;;;;;;;;;;5084855;28;19939;-81
2022/09/23 04:57:46;;;;;;;;;;;;;;;;;;5093500;28;19924;-79
2022/09/23 05:00:14;;;;;;;;;;;;;;;;;;5085168;28;19931;-79
2022/09/23 05:02:41;;;;;;;;;;;;;;;;;;5095936;28;20247;-80
2022/09/23 05:05:08;;;;;;;;;;;;;;;;;;5097216;28;20365;-81
2022/09/23 05:07:35;;;;;;;;;;;;;;;;;;5090418;28;19930;-79
2022/09/23 05:10:02;;;;;;;;;;;;;;;;;;5091185;28;19928;-80
2022/09/23 05:12:29;;;;;;;;;;;;;;;;;;5085761;28;19950;-79
2022/09/23 05:14:56;;;;;;;;;;;;;;;;;;5084700;28;19935;-77
2022/09/23 05:17:23;;;;;;;;;;;;;;;;;;5085469;28;19928;-82
2022/09/23 05:19:50;;;;;;;;;;;;;;;;;;5083521;28;19982;-79
2022/09/23 05:22:18;;;;;;;;;;;;;;;;;;5076661;28;19928;-79
2022/09/23 05:24:45;;;;;;;;;;;;;;;;;;5083975;28;19932;-77
2022/09/23 05:27:12;;;;;;;;;;;;;;;;;;5079038;28;19924;-78
2022/09/23 05:29:39;;;;;;;;;;;;;;;;;;5079696;28;19932;-79
2022/09/23 05:32:06;;;;;;;;;;;;;;;;;;5080803;28;19924;-80
2022/09/23 05:34:33;;;;;;;;;;;;;;;;;;5086133;28;19938;-78
2022/09/23 05:37:01;;;;;;;;;;;;;;;;;;5089311;28;20402;-80
2022/09/23 05:39:28;;;;;;;;;;;;;;;;;;5078657;28;19939;-80
2022/09/23 05:41:55;;;;;;;;;;;;;;;;;;5079155;28;19955;-78
2022/09/23 05:44:22;;;;;;;;;;;;;;;;;;5084554;28;20326;-78
2022/09/23 05:46:49;;;;;;;;;;;;;;;;;;5092812;28;19940;-79
2022/09/23 05:49:16;;;;;;;;;;;;;;;;;;5086863;28;19934;-79
2022/09/23 05:51:43;;;;;;;;;;;;;;;;;;5080750;28;19984;-80
2022/09/23 05:54:10;;;;;;;;;;;;;;;;;;5090537;28;19932;-79
2022/09/23 05:56:37;;;;;;;;;;;;;;;;;;5082175;28;20013;-79
2022/09/23 05:59:07;;;;;;;;;;;;;;;;;;5075851;28;19939;-81
2022/09/23 06:01:35;;;;;;;;;;;;;;;;;;5079675;28;19932;-79
2022/09/23 06:04:02;;;;;;;;;;;;;;;;;;5081978;28;19931;-79
2022/09/23 06:06:29;;;;;;;;;;;;;;;;;;5082910;28;19934;-79
2022/09/23 06:08:57;;;;;;;;;;;;;;;;;;5084941;28;19928;-79
2022/09/23 06:11:24;;;;;;;;;;;;;;;;;;5083262;28;19970;-79
2022/09/23 06:13:51;;;;;;;;;;;;;;;;;;5089415;28;19928;-80
2022/09/23 06:16:18;;;;;;;;;;;;;;;;;;5081528;28;19928;-79
2022/09/23 06:18:45;;;;;;;;;;;;;;;;;;5086076;28;19924;-80
2022/09/23 06:21:12;;;;;;;;;;;;;;;;;;5093270;28;20264;-79
2022/09/23 06:23:39;;;;;;;;;;;;;;;;;;5083521;28;19974;-79
2022/09/23 06:26:06;;;;;;;;;;;;;;;;;;5084026;28;19929;-79
2022/09/23 06:28:33;;;;;;;;;;;;;;;;;;5086444;28;19928;-78
2022/09/23 06:31:01;;;;;;;;;;;;;;;;;;5080366;28;19928;-79
2022/09/23 06:33:28;;;;;;;;;;;;;;;;;;5089159;28;20537;-74
2022/09/23 06:35:56;;;;;;;;;;;;;;;;;;5082774;28;19935;-79
2022/09/23 06:38:23;;;;;;;;;;;;;;;;;;5086505;28;19967;-79
2022/09/23 06:40:51;;;;;;;;;;;;;;;;;;5086475;28;20294;-79
2022/09/23 06:43:18;;;;;;;;;;;;;;;;;;5084460;28;19928;-78
2022/09/23 06:45:45;;;;;;;;;;;;;;;;;;5077744;28;19932;-79
2022/09/23 06:48:12;;;;;;;;;;;;;;;;;;5089782;28;19928;-80
2022/09/23 06:50:39;;;;;;;;;;;;;;;;;;5090599;28;19951;-79
2022/09/23 06:53:06;;;;;;;;;;;;;;;;;;5084341;28;20248;-79
2022/09/23 06:55:33;;;;;;;;;;;;;;;;;;5089133;28;19928;-80
2022/09/23 06:58:00;;;;;;;;;;;;;;;;;;5091117;28;19956;-77
2022/09/23 07:00:28;;;;;;;;;;;;;;;;;;5085106;28;20598;-80
2022/09/23 07:02:55;;;;;;;;;;;;;;;;;;5085958;28;20375;-79
2022/09/23 07:05:22;;;;;;;;;;;;;;;;;;5082204;28;19989;-80
2022/09/23 07:07:49;;;;;;;;;;;;;;;;;;5086060;28;19928;-78
2022/09/23 07:10:16;;;;;;;;;;;;;;;;;;5084503;28;19928;-77
2022/09/23 07:12:44;;;;;;;;;;;;;;;;;;5088503;28;19938;-79
2022/09/23 07:15:11;;;;;;;;;;;;;;;;;;5079873;28;19940;-75
2022/09/23 07:17:38;;;;;;;;;;;;;;;;;;5083603;28;19928;-79
2022/09/23 07:20:05;;;;;;;;;;;;;;;;;;5078030;28;19939;-77
2022/09/23 07:22:32;;;;;;;;;;;;;;;;;;5083142;28;19932;-80
2022/09/23 07:24:59;;;;;;;;;;;;;;;;;;5086090;28;19924;-79
2022/09/23 07:27:26;;;;;;;;;;;;;;;;;;5082756;28;19924;-78
2022/09/23 07:29:53;;;;;;;;;;;;;;;;;;5085891;28;19932;-79
2022/09/23 07:32:20;;;;;;;;;;;;;;;;;;5079647;28;20342;-80
2022/09/23 07:34:47;;;;;;;;;;;;;;;;;;5081667;28;19924;-78
2022/09/23 07:37:14;;;;;;;;;;;;;;;;;;5085609;28;19931;-80
2022/09/23 07:39:41;;;;;;;;;;;;;;;;;;5079680;28;19932;-78
2022/09/23 07:42:10;;;;;;;;;;;;;;;;;;5079839;28;19936;-80
2022/09/23 07:44:37;;;;;;;;;;;;;;;;;;5084768;28;19931;-80
2022/09/23 07:47:05;;;;;;;;;;;;;;;;;;5086006;28;19924;-79
2022/09/23 07:49:32;;;;;;;;;;;;;;;;;;5082673;28;19974;-79
2022/09/23 07:51:59;;;;;;;;;;;;;;;;;;5078608;28;20630;-80
2022/09/23 07:54:28;;;;;;;;;;;;;;;;;;5086936;28;19931;-80
2022/09/23 07:56:55;;;;;;;;;;;;;;;;;;5083525;28;19959;-78
2022/09/23 07:59:22;;;;;;;;;;;;;;;;;;5077631;28;20050;-78
2022/09/23 08:01:51;;;;;;;;;;;;;;;;;;5078324;28;19929;-79
2022/09/23 08:04:18;;;;;;;;;;;;;;;;;;5079996;28;19928;-78
2022/09/23 08:06:45;;;;;;;;;;;;;;;;;;5079937;28;19981;-79
2022/09/23 08:09:12;;;;;;;;;;;;;;;;;;5085563;28;19932;-80
2022/09/23 08:11:40;;;;;;;;;;;;;;;;;;5075137;28;19936;-79
2022/09/23 08:14:07;;;;;;;;;;;;;;;;;;5086680;28;19982;-80
2022/09/23 08:16:34;;;;;;;;;;;;;;;;;;5076939;28;19928;-79
2022/09/23 08:19:01;;;;;;;;;;;;;;;;;;5077396;28;19928;-79
2022/09/23 08:21:29;;;;;;;;;;;;;;;;;;5076865;28;19928;-79
2022/09/23 08:23:56;;;;;;;;;;;;;;;;;;5084725;28;20111;-78
2022/09/23 08:26:23;;;;;;;;;;;;;;;;;;5077718;28;19929;-79
2022/09/23 08:28:53;;;;;;;;;;;;;;;;;;5081772;28;19987;-79
2022/09/23 08:31:20;;;;;;;;;;;;;;;;;;5075179;28;20542;-79
2022/09/23 08:33:47;;;;;;;;;;;;;;;;;;5081217;28;19935;-80
2022/09/23 08:36:14;;;;;;;;;;;;;;;;;;5077613;28;19929;-79
2022/09/23 08:38:41;;;;;;;;;;;;;;;;;;5087499;28;19959;-78
2022/09/23 08:41:08;;;;;;;;;;;;;;;;;;5082054;28;19925;-79
2022/09/23 08:43:35;;;;;;;;;;;;;;;;;;5072930;28;19924;-78
2022/09/23 08:46:02;;;;;;;;;;;;;;;;;;5069278;28;19932;-78
2022/09/23 08:48:29;;;;;;;;;;;;;;;;;;5072996;28;20401;-79
2022/09/23 08:50:57;;;;;;;;;;;;;;;;;;5071233;28;20365;-79
2022/09/23 08:53:24;;;;;;;;;;;;;;;;;;5071158;28;19928;-78
2022/09/23 08:55:52;;;;;;;;;;;;;;;;;;5071248;28;19923;-79
2022/09/23 08:58:20;;;;;;;;;;;;;;;;;;5066496;28;20657;-78
2022/09/23 09:00:47;;;;;;;;;;;;;;;;;;5070847;28;19931;-79
2022/09/23 09:03:14;;;;;;;;;;;;;;;;;;5072428;28;20604;-76
2022/09/23 09:05:41;;;;;;;;;;;;;;;;;;5076016;28;19924;-79
2022/09/23 09:08:08;;;;;;;;;;;;;;;;;;5070937;28;19924;-78
2022/09/23 09:10:35;;;;;;;;;;;;;;;;;;5073126;28;19992;-77
2022/09/23 09:13:02;;;;;;;;;;;;;;;;;;5070664;28;19932;-78
2022/09/23 09:15:29;;;;;;;;;;;;;;;;;;5065881;28;19928;-80
2022/09/23 09:17:58;;;;;;;;;;;;;;;;;;5072982;28;20352;-77
2022/09/23 09:20:25;;;;;;;;;;;;;;;;;;5063422;28;20018;-78
2022/09/23 09:22:52;;;;;;;;;;;;;;;;;;5072077;28;20020;-76
2022/09/23 09:25:19;;;;;;;;;;;;;;;;;;5063455;28;19932;-78
2022/09/23 09:27:46;;;;;;;;;;;;;;;;;;5068666;28;19928;-76
2022/09/23 09:30:14;;;;;;;;;;;;;;;;;;5070213;28;19951;-78
2022/09/23 09:32:46;;;;;;;;;;;;;;;;;;5069988;28;20012;-76
2022/09/23 09:35:13;;;;;;;;;;;;;;;;;;5071735;28;20018;-78
2022/09/23 09:37:40;;;;;;;;;;;;;;;;;;5067841;28;19928;-77
2022/09/23 09:40:07;;;;;;;;;;;;;;;;;;5075268;28;19963;-77
2022/09/23 09:42:35;;;;;;;;;;;;;;;;;;5075233;28;19928;-79
2022/09/23 09:45:02;;;;;;;;;;;;;;;;;;5085778;28;19977;-75
2022/09/23 09:47:29;;;;;;;;;;;;;;;;;;5090448;28;20401;-78
2022/09/23 09:49:57;;;;;;;;;;;;;;;;;;5090742;28;19928;-78
2022/09/23 09:52:25;;;;;;;;;;;;;;;;;;5086139;28;19928;-78
2022/09/23 09:54:55;;;;;;;;;;;;;;;;;;5083346;28;19947;-79
2022/09/23 09:57:25;;;;;;;;;;;;;;;;;;5071236;28;19939;-75
2022/09/23 09:59:52;;;;;;;;;;;;;;;;;;5071355;28;19932;-78
2022/09/23 10:02:20;;;;;;;;;;;;;;;;;;5083379;28;19928;-75
2022/09/23 10:04:47;;;;;;;;;;;;;;;;;;5076036;28;20366;-79
2022/09/23 10:07:14;;;;;;;;;;;;;;;;;;5086623;28;19958;-79
2022/09/23 10:09:42;;;;;;;;;;;;;;;;;;5084651;28;19931;-77
2022/09/23 10:12:09;;;;;;;;;;;;;;;;;;5088081;28;20084;-78
2022/09/23 10:14:36;;;;;;;;;;;;;;;;;;5089995;28;19985;-79
2022/09/23 10:17:04;;;;;;;;;;;;;;;;;;5086864;28;19924;-78
2022/09/23 10:19:31;;;;;;;;;;;;;;;;;;5087098;28;19928;-79
2022/09/23 10:21:59;;;;;;;;;;;;;;;;;;5081188;28;19928;-79
2022/09/23 10:24:26;;;;;;;;;;;;;;;;;;5083132;28;19968;-78
2022/09/23 10:26:53;;;;;;;;;;;;;;;;;;5082023;28;19932;-80
2022/09/23 10:29:21;;;;;;;;;;;;;;;;;;5078675;28;20282;-79
2022/09/23 10:31:51;;;;;;;;;;;;;;;;;;5080028;28;19928;-80
2022/09/23 10:34:18;;;;;;;;;;;;;;;;;;5082833;28;19978;-76
2022/09/23 10:36:45;;;;;;;;;;;;;;;;;;5076979;28;19935;-80
2022/09/23 10:47:27;;;;;;;;;;;;;;;;;;5082358;28;20342;-79
2022/09/23 10:49:54;;;;;;;;;;;;;;;;;;5075701;28;19928;-80
2022/09/23 10:52:21;;;;;;;;;;;;;;;;;;5077878;28;19939;-80
2022/09/23 10:54:48;;;;;;;;;;;;;;;;;;5084036;28;20336;-78
2022/09/23 10:59:56;;;;;;;;;;;;;;;;;;5080523;28;19951;-80
2022/09/23 11:02:23;;;;;;;;;;;;;;;;;;5082720;28;19981;-77
2022/09/23 11:04:51;;;;;;;;;;;;;;;;;;5082747;28;19935;-78
2022/09/23 11:07:18;;;;;;;;;;;;;;;;;;5076969;28;20019;-79
2022/09/23 11:09:45;;;;;;;;;;;;;;;;;;5085785;28;19935;-79
2022/09/23 11:12:12;;;;;;;;;;;;;;;;;;5092978;28;19935;-80
2022/09/23 11:14:40;;;;;;;;;;;;;;;;;;5085358;28;19939;-80
2022/09/23 11:17:07;;;;;;;;;;;;;;;;;;5081404;28;21213;-80
2022/09/23 11:19:34;;;;;;;;;;;;;;;;;;5078627;28;19932;-80
2022/09/23 11:22:01;;;;;;;;;;;;;;;;;;5082550;28;19931;-80
2022/09/23 11:24:28;;;;;;;;;;;;;;;;;;5082334;28;19925;-81
2022/09/23 11:26:55;;;;;;;;;;;;;;;;;;5081387;28;19968;-80
2022/09/23 11:29:22;;;;;;;;;;;;;;;;;;5088956;28;20631;-79
2022/09/23 11:31:49;;;;;;;;;;;;;;;;;;5087268;28;20006;-79
2022/09/23 11:34:16;;;;;;;;;;;;;;;;;;5084496;28;19924;-78
2022/09/23 11:36:43;;;;;;;;;;;;;;;;;;5083268;28;19958;-77
2022/09/23 11:39:10;;;;;;;;;;;;;;;;;;5076400;28;19946;-78
2022/09/23 11:41:37;;;;;;;;;;;;;;;;;;5079083;28;19927;-78
2022/09/23 11:44:06;;;;;;;;;;;;;;;;;;5086653;28;20406;-82
2022/09/23 11:46:33;;;;;;;;;;;;;;;;;;5082857;28;19933;-78
2022/09/23 11:49:00;;;;;;;;;;;;;;;;;;5086991;28;19927;-78
2022/09/23 11:51:27;;;;;;;;;;;;;;;;;;5075062;28;19925;-79
2022/09/23 11:53:54;;;;;;;;;;;;;;;;;;5084363;28;19924;-77
2022/09/23 11:56:22;;;;;;;;;;;;;;;;;;5078763;28;19925;-77
2022/09/23 11:58:49;;;;;;;;;;;;;;;;;;5082416;28;20657;-79
2022/09/23 12:01:18;;;;;;;;;;;;;;;;;;5082950;28;19962;-77
2022/09/23 12:03:46;;;;;;;;;;;;;;;;;;5086793;28;20023;-77
2022/09/23 12:06:14;;;;;;;;;;;;;;;;;;5079337;28;19985;-79
2022/09/23 12:08:41;;;;;;;;;;;;;;;;;;5085481;28;20286;-77
2022/09/23 12:11:08;;;;;;;;;;;;;;;;;;5083682;28;19924;-76
2022/09/23 12:13:35;;;;;;;;;;;;;;;;;;5081482;28;19936;-77
2022/09/23 12:16:02;;;;;;;;;;;;;;;;;;5078886;28;19991;-78
2022/09/23 12:18:29;;;;;;;;;;;;;;;;;;5071615;28;19928;-77
2022/09/23 12:20:57;;;;;;;;;;;;;;;;;;5084262;28;19924;-79
2022/09/23 12:23:24;;;;;;;;;;;;;;;;;;5078884;28;20317;-77
2022/09/23 12:25:51;;;;;;;;;;;;;;;;;;5081870;28;19939;-79
2022/09/23 12:28:18;;;;;;;;;;;;;;;;;;5086302;28;19928;-78
2022/09/23 12:30:45;;;;;;;;;;;;;;;;;;5081896;28;19966;-78
2022/09/23 12:33:12;;;;;;;;;;;;;;;;;;5081517;28;20046;-79
2022/09/23 12:35:40;;;;;;;;;;;;;;;;;;5080959;28;19928;-77
2022/09/23 12:38:07;;;;;;;;;;;;;;;;;;5085804;28;19924;-76
2022/09/23 12:40:34;;;;;;;;;;;;;;;;;;5085472;28;19932;-79
2022/09/23 12:43:01;;;;;;;;;;;;;;;;;;5081076;28;19993;-78
2022/09/23 12:45:31;;;;;;;;;;;;;;;;;;5078193;28;19928;-78
2022/09/23 12:47:58;;;;;;;;;;;;;;;;;;5078944;28;20362;-78
2022/09/23 12:50:25;;;;;;;;;;;;;;;;;;5087128;28;20386;-79
2022/09/23 12:52:52;;;;;;;;;;;;;;;;;;5089383;28;20393;-77
2022/09/23 12:55:20;;;;;;;;;;;;;;;;;;5079205;28;20395;-77
2022/09/23 12:57:48;;;;;;;;;;;;;;;;;;5078527;28;19977;-77
2022/09/23 13:00:15;;;;;;;;;;;;;;;;;;5082482;28;19978;-73
2022/09/23 13:02:42;;;;;;;;;;;;;;;;;;5082350;28;20437;-73
2022/09/23 13:07:53;;;;;;;;;;;;;;;;;;5078317;28;21280;-73
2022/09/23 13:10:20;;;;;;;;;;;;;;;;;;5081659;28;19935;-72
2022/09/23 13:12:47;;;;;;;;;;;;;;;;;;5076079;28;19932;-72
2022/09/23 13:15:15;;;;;;;;;;;;;;;;;;5080598;28;19933;-71
2022/09/23 13:17:42;;;;;;;;;;;;;;;;;;5082176;28;19928;-70
2022/09/23 13:20:09;;;;;;;;;;;;;;;;;;5081338;28;19935;-71
2022/09/23 13:22:36;;;;;;;;;;;;;;;;;;5087076;28;19934;-70
2022/09/23 13:25:03;;;;;;;;;;;;;;;;;;5085071;28;20668;-70
2022/09/23 13:27:30;;;;;;;;;;;;;;;;;;5080722;28;19924;-70
2022/09/23 13:29:57;;;;;;;;;;;;;;;;;;5089167;28;20022;-71
2022/09/23 13:32:24;;;;;;;;;;;;;;;;;;5086697;28;19928;-71
2022/09/23 13:34:51;;;;;;;;;;;;;;;;;;5083733;28;19988;-71
2022/09/23 13:37:18;;;;;;;;;;;;;;;;;;5081710;28;20333;-71
2022/09/23 13:39:45;;;;;;;;;;;;;;;;;;5078852;28;19940;-71
2022/09/23 13:42:15;;;;;;;;;;;;;;;;;;5083454;28;20476;-69
2022/09/23 13:44:42;;;;;;;;;;;;;;;;;;5080519;28;19979;-69
2022/09/23 13:47:10;;;;;;;;;;;;;;;;;;5085032;28;19975;-71
2022/09/23 13:49:37;;;;;;;;;;;;;;;;;;5081760;28;19967;-71
2022/09/23 13:52:04;;;;;;;;;;;;;;;;;;5084799;28;19932;-71
2022/09/23 13:54:32;;;;;;;;;;;;;;;;;;5082591;28;20032;-71
2022/09/23 13:56:59;;;;;;;;;;;;;;;;;;5083317;28;19938;-71
2022/09/23 13:59:26;;;;;;;;;;;;;;;;;;5086047;28;20307;-71
2022/09/23 14:01:53;;;;;;;;;;;;;;;;;;5085077;28;19932;-71
2022/09/23 14:04:20;;;;;;;;;;;;;;;;;;5085275;28;19924;-71
2022/09/23 14:06:47;;;;;;;;;;;;;;;;;;5086349;28;20398;-71
2022/09/23 14:09:14;;;;;;;;;;;;;;;;;;5084146;28;19928;-71
2022/09/23 14:11:41;;;;;;;;;;;;;;;;;;5086342;28;20007;-71
2022/09/23 14:14:08;;;;;;;;;;;;;;;;;;5087919;28;19931;-71
2022/09/23 14:16:35;;;;;;;;;;;;;;;;;;5086225;28;20714;-71
2022/09/23 14:19:02;;;;;;;;;;;;;;;;;;5090511;28;19939;-71
2022/09/23 14:21:33;;;;;;;;;;;;;;;;;;5083239;28;20355;-71
2022/09/23 14:24:00;;;;;;;;;;;;;;;;;;5082334;28;20012;-71
2022/09/23 14:26:27;;;;;;;;;;;;;;;;;;5084102;28;19925;-71
2022/09/23 14:28:54;;;;;;;;;;;;;;;;;;5071631;28;19929;-71
2022/09/23 14:31:21;;;;;;;;;;;;;;;;;;5087252;28;19947;-71
2022/09/23 14:33:48;;;;;;;;;;;;;;;;;;5082559;28;19992;-71
2022/09/23 14:38:56;;;;;;;;;;;;;;;;;;5081057;28;20000;-71
2022/09/23 14:41:23;;;;;;;;;;;;;;;;;;5076566;28;19929;-71
2022/09/23 14:43:50;;;;;;;;;;;;;;;;;;5084963;28;19977;-71
2022/09/23 14:46:17;;;;;;;;;;;;;;;;;;5084894;28;19928;-71
2022/09/23 14:48:44;;;;;;;;;;;;;;;;;;5087630;28;19935;-71
2022/09/23 14:51:11;;;;;;;;;;;;;;;;;;5081063;28;20037;-71
2022/09/23 14:53:39;;;;;;;;;;;;;;;;;;5085610;28;19927;-71
2022/09/23 14:56:06;;;;;;;;;;;;;;;;;;5082494;28;19989;-71
2022/09/23 14:58:33;;;;;;;;;;;;;;;;;;5081606;28;20010;-71
2022/09/23 15:01:01;;;;;;;;;;;;;;;;;;5087925;28;19943;-71
2022/09/23 15:03:28;;;;;;;;;;;;;;;;;;5087410;28;19935;-71
2022/09/23 15:05:56;;;;;;;;;;;;;;;;;;5088233;28;19935;-71
2022/09/23 15:08:24;;;;;;;;;;;;;;;;;;5081913;28;20318;-71
2022/09/23 15:10:51;;;;;;;;;;;;;;;;;;5088180;28;20776;-71
2022/09/23 15:13:18;;;;;;;;;;;;;;;;;;5084816;28;19927;-71
2022/09/23 15:15:45;;;;;;;;;;;;;;;;;;5080476;28;19936;-71
2022/09/23 15:18:12;;;;;;;;;;;;;;;;;;5080139;28;19935;-72
2022/09/23 15:20:39;;;;;;;;;;;;;;;;;;5079436;28;19928;-71
2022/09/23 15:23:06;;;;;;;;;;;;;;;;;;5080501;28;19935;-71
2022/09/23 15:25:34;;;;;;;;;;;;;;;;;;5086009;28;20027;-71
2022/09/23 15:28:02;;;;;;;;;;;;;;;;;;5082417;28;20092;-72
2022/09/23 15:30:29;;;;;;;;;;;;;;;;;;5080209;28;20381;-71
2022/09/23 15:32:56;;;;;;;;;;;;;;;;;;5075868;28;19931;-71
2022/09/23 15:35:24;;;;;;;;;;;;;;;;;;5084146;28;19935;-71
2022/09/23 15:37:52;;;;;;;;;;;;;;;;;;5085879;28;19932;-71
2022/09/23 15:40:19;;;;;;;;;;;;;;;;;;5083617;28;19928;-71
2022/09/23 15:42:51;;;;;;;;;;;;;;;;;;5084282;28;19928;-71
2022/09/23 15:45:19;;;;;;;;;;;;;;;;;;5084439;28;19932;-71
2022/09/23 15:47:46;;;;;;;;;;;;;;;;;;5084757;28;19959;-71
2022/09/23 15:50:13;;;;;;;;;;;;;;;;;;5084966;28;19978;-71
2022/09/23 15:52:43;;;;;;;;;;;;;;;;;;5081304;28;19935;-71
2022/09/23 15:55:10;;;;;;;;;;;;;;;;;;5076917;28;19927;-71
2022/09/23 15:57:37;;;;;;;;;;;;;;;;;;5079990;28;20248;-71
2022/09/23 16:00:05;;;;;;;;;;;;;;;;;;5074588;28;19940;-71
2022/09/23 16:02:32;;;;;;;;;;;;;;;;;;5079866;28;19928;-71
2022/09/23 16:05:01;;;;;;;;;;;;;;;;;;5086931;28;20390;-71
2022/09/23 16:07:28;;;;;;;;;;;;;;;;;;5082034;28;19934;-71
2022/09/23 16:09:57;;;;;;;;;;;;;;;;;;5083878;28;19935;-71
2022/09/23 16:12:24;;;;;;;;;;;;;;;;;;5090643;28;19958;-71
2022/09/23 16:14:51;;;;;;;;;;;;;;;;;;5089904;28;20713;-71
2022/09/23 16:17:18;;;;;;;;;;;;;;;;;;5086821;28;19924;-71
2022/09/23 16:19:45;;;;;;;;;;;;;;;;;;5083621;28;20475;-71
2022/09/23 16:22:12;;;;;;;;;;;;;;;;;;5088726;28;19932;-71
2022/09/23 16:24:39;;;;;;;;;;;;;;;;;;5080675;28;20411;-71
2022/09/23 16:27:06;;;;;;;;;;;;;;;;;;5086041;28;19931;-71
2022/09/23 16:29:33;;;;;;;;;;;;;;;;;;5086412;28;19971;-71
2022/09/23 16:32:00;;;;;;;;;;;;;;;;;;5088205;28;20019;-71
2022/09/23 16:34:28;;;;;;;;;;;;;;;;;;5082487;28;19928;-71
2022/09/23 16:36:55;;;;;;;;;;;;;;;;;;5084437;28;19950;-72
2022/09/23 16:39:22;;;;;;;;;;;;;;;;;;5082014;28;19974;-71
2022/09/23 16:41:49;;;;;;;;;;;;;;;;;;5085801;28;19924;-71
2022/09/23 16:44:16;;;;;;;;;;;;;;;;;;5080533;28;19929;-71
2022/09/23 16:46:43;;;;;;;;;;;;;;;;;;5088671;28;19932;-71
2022/09/23 16:49:11;;;;;;;;;;;;;;;;;;5087420;28;19929;-71
2022/09/23 16:51:38;;;;;;;;;;;;;;;;;;5090106;28;20586;-71
2022/09/23 16:54:06;;;;;;;;;;;;;;;;;;5082502;28;19928;-71
2022/09/23 16:56:33;;;;;;;;;;;;;;;;;;5084683;28;19974;-71
2022/09/23 16:59:00;;;;;;;;;;;;;;;;;;5075320;28;19924;-71
2022/09/23 17:04:11;;;;;;;;;;;;;;;;;;5091594;28;19927;-71